sensor_id;sensor_type;location;lat;lon;timestamp;temperature;humidity
6666;DHT22;3369;49.906;8.598;2023-02-28T00:01:14;-1.30;93.60
6666;DHT22;3369;49.906;8.598;2023-02-28T00:03:41;-1.40;93.80
6666;DHT22;3369;49.906;8.598;2023-02-28T00:06:07;-1.50;93.90
6666;DHT22;3369;49.906;8.598;2023-02-28T00:08:35;-1.50;94.10
6666;DHT22;3369;49.906;8.598;2023-02-28T00:11:04;-1.50;94.30
6666;DHT22;3369;49.906;8.598;2023-02-28T00:13:31;-1.60;94.40
6666;DHT22;3369;49.906;8.598;2023-02-28T00:16:05;-1.60;94.50
6666;DHT22;3369;49.906;8.598;2023-02-28T00:18:37;-1.60;94.60
6666;DHT22;3369;49.906;8.598;2023-02-28T00:21:09;-1.60;94.60
6666;DHT22;3369;49.906;8.598;2023-02-28T00:23:57;-1.60;94.70
6666;DHT22;3369;49.906;8.598;2023-02-28T00:29:52;-1.50;94.80
6666;DHT22;3369;49.906;8.598;2023-02-28T00:32:26;-1.60;94.80
6666;DHT22;3369;49.906;8.598;2023-02-28T00:34:55;-1.60;94.80
6666;DHT22;3369;49.906;8.598;2023-02-28T00:37:27;-1.60;94.90
6666;DHT22;3369;49.906;8.598;2023-02-28T00:39:59;-1.60;95.00
6666;DHT22;3369;49.906;8.598;2023-02-28T00:42:45;-1.60;95.00
6666;DHT22;3369;49.906;8.598;2023-02-28T00:45:18;-1.60;95.20
6666;DHT22;3369;49.906;8.598;2023-02-28T00:47:48;-1.60;95.30
6666;DHT22;3369;49.906;8.598;2023-02-28T00:50:21;-1.60;95.30
6666;DHT22;3369;49.906;8.598;2023-02-28T00:53:15;-1.60;95.30
6666;DHT22;3369;49.906;8.598;2023-02-28T00:59:14;-1.60;95.30
6666;DHT22;3369;49.906;8.598;2023-02-28T01:01:45;-1.60;95.40
6666;DHT22;3369;49.906;8.598;2023-02-28T01:04:33;-1.60;95.40
6666;DHT22;3369;49.906;8.598;2023-02-28T01:07:11;-1.60;95.60
6666;DHT22;3369;49.906;8.598;2023-02-28T01:29:26;-1.80;95.60
6666;DHT22;3369;49.906;8.598;2023-02-28T01:32:17;-1.80;96.10
6666;DHT22;3369;49.906;8.598;2023-02-28T01:34:43;-1.80;96.00
6666;DHT22;3369;49.906;8.598;2023-02-28T01:37:11;-1.80;96.20
6666;DHT22;3369;49.906;8.598;2023-02-28T01:39:40;-1.80;96.20
6666;DHT22;3369;49.906;8.598;2023-02-28T01:48:36;-1.80;96.70
6666;DHT22;3369;49.906;8.598;2023-02-28T01:51:13;-1.90;96.70
6666;DHT22;3369;49.906;8.598;2023-02-28T01:53:52;-1.90;97.00
6666;DHT22;3369;49.906;8.598;2023-02-28T01:56:22;-1.90;97.10
6666;DHT22;3369;49.906;8.598;2023-02-28T01:58:55;-1.80;97.30
6666;DHT22;3369;49.906;8.598;2023-02-28T02:01:22;-1.80;97.40
6666;DHT22;3369;49.906;8.598;2023-02-28T02:03:51;-1.80;97.50
6666;DHT22;3369;49.906;8.598;2023-02-28T02:25:56;-1.90;98.10
6666;DHT22;3369;49.906;8.598;2023-02-28T02:37:44;-2.10;98.40
6666;DHT22;3369;49.906;8.598;2023-02-28T02:44:11;-2.20;98.80
6666;DHT22;3369;49.906;8.598;2023-02-28T02:47:16;-2.20;98.80
6666;DHT22;3369;49.906;8.598;2023-02-28T02:55:38;-2.20;99.40
6666;DHT22;3369;49.906;8.598;2023-02-28T02:58:22;-2.20;99.40
6666;DHT22;3369;49.906;8.598;2023-02-28T03:00:56;-2.20;99.60
6666;DHT22;3369;49.906;8.598;2023-02-28T03:03:23;-2.20;99.70
6666;DHT22;3369;49.906;8.598;2023-02-28T03:05:57;-2.10;99.80
6666;DHT22;3369;49.906;8.598;2023-02-28T03:08:23;-2.20;99.80
6666;DHT22;3369;49.906;8.598;2023-02-28T03:10:57;-2.20;99.80
6666;DHT22;3369;49.906;8.598;2023-02-28T03:23:29;-2.20;99.90
6666;DHT22;3369;49.906;8.598;2023-02-28T03:33:02;-2.20;99.90
6666;DHT22;3369;49.906;8.598;2023-02-28T03:39:25;-2.30;99.90
6666;DHT22;3369;49.906;8.598;2023-02-28T03:42:04;-2.30;99.90
6666;DHT22;3369;49.906;8.598;2023-02-28T03:50:39;-2.30;99.90
6666;DHT22;3369;49.906;8.598;2023-02-28T03:53:29;-2.30;99.90
6666;DHT22;3369;49.906;8.598;2023-02-28T04:01:55;-2.40;99.90
6666;DHT22;3369;49.906;8.598;2023-02-28T04:04:23;-2.40;99.90
6666;DHT22;3369;49.906;8.598;2023-02-28T04:06:53;-2.50;99.90
6666;DHT22;3369;49.906;8.598;2023-02-28T04:09:30;-2.50;99.90
6666;DHT22;3369;49.906;8.598;2023-02-28T04:12:28;-2.60;99.90
6666;DHT22;3369;49.906;8.598;2023-02-28T04:14:57;-2.60;99.90
6666;DHT22;3369;49.906;8.598;2023-02-28T04:17:23;-2.60;99.90
6666;DHT22;3369;49.906;8.598;2023-02-28T04:19:54;-2.60;99.90
6666;DHT22;3369;49.906;8.598;2023-02-28T04:22:25;-2.60;99.90
6666;DHT22;3369;49.906;8.598;2023-02-28T04:25:11;-2.60;99.90
6666;DHT22;3369;49.906;8.598;2023-02-28T04:28:04;-2.60;99.90
6666;DHT22;3369;49.906;8.598;2023-02-28T04:30:30;-2.60;99.90
6666;DHT22;3369;49.906;8.598;2023-02-28T04:32:59;-2.60;99.90
6666;DHT22;3369;49.906;8.598;2023-02-28T04:35:25;-2.60;99.90
6666;DHT22;3369;49.906;8.598;2023-02-28T04:37:53;-2.60;99.90
6666;DHT22;3369;49.906;8.598;2023-02-28T04:40:21;-2.50;99.90
6666;DHT22;3369;49.906;8.598;2023-02-28T04:42:47;-2.60;99.90
6666;DHT22;3369;49.906;8.598;2023-02-28T04:45:15;-2.60;99.90
6666;DHT22;3369;49.906;8.598;2023-02-28T04:47:44;-2.60;99.90
6666;DHT22;3369;49.906;8.598;2023-02-28T04:50:12;-2.50;99.90
6666;DHT22;3369;49.906;8.598;2023-02-28T04:52:38;-2.50;99.90
6666;DHT22;3369;49.906;8.598;2023-02-28T04:55:30;-2.50;99.90
6666;DHT22;3369;49.906;8.598;2023-02-28T05:05:25;-2.30;99.90
6666;DHT22;3369;49.906;8.598;2023-02-28T05:08:13;-2.30;99.90
6666;DHT22;3369;49.906;8.598;2023-02-28T05:10:42;-2.30;99.90
6666;DHT22;3369;49.906;8.598;2023-02-28T05:13:12;-2.20;99.90
6666;DHT22;3369;49.906;8.598;2023-02-28T05:15:51;-2.30;99.90
6666;DHT22;3369;49.906;8.598;2023-02-28T05:18:17;-2.20;99.90
6666;DHT22;3369;49.906;8.598;2023-02-28T05:21:03;-2.20;99.90
6666;DHT22;3369;49.906;8.598;2023-02-28T05:23:29;-2.20;99.90
6666;DHT22;3369;49.906;8.598;2023-02-28T05:25:55;-2.10;99.90
6666;DHT22;3369;49.906;8.598;2023-02-28T05:28:24;-2.10;99.90
6666;DHT22;3369;49.906;8.598;2023-02-28T05:30:50;-2.10;99.90
6666;DHT22;3369;49.906;8.598;2023-02-28T05:33:16;-2.10;99.90
6666;DHT22;3369;49.906;8.598;2023-02-28T05:35:42;-2.10;99.90
6666;DHT22;3369;49.906;8.598;2023-02-28T05:38:10;-2.10;99.90
6666;DHT22;3369;49.906;8.598;2023-02-28T05:43:42;-2.20;99.90
6666;DHT22;3369;49.906;8.598;2023-02-28T05:46:11;-2.20;99.90
6666;DHT22;3369;49.906;8.598;2023-02-28T05:48:39;-2.30;99.90
6666;DHT22;3369;49.906;8.598;2023-02-28T05:51:06;-2.30;99.90
6666;DHT22;3369;49.906;8.598;2023-02-28T05:53:39;-2.20;99.90
6666;DHT22;3369;49.906;8.598;2023-02-28T05:56:07;-2.20;99.90
6666;DHT22;3369;49.906;8.598;2023-02-28T05:58:33;-2.20;99.90
6666;DHT22;3369;49.906;8.598;2023-02-28T06:03:46;-2.20;99.90
6666;DHT22;3369;49.906;8.598;2023-02-28T06:06:12;-2.30;99.90
6666;DHT22;3369;49.906;8.598;2023-02-28T06:08:37;-2.30;99.90
6666;DHT22;3369;49.906;8.598;2023-02-28T06:11:06;-2.30;99.90
6666;DHT22;3369;49.906;8.598;2023-02-28T06:13:32;-2.30;99.90
6666;DHT22;3369;49.906;8.598;2023-02-28T06:16:01;-2.30;99.90
6666;DHT22;3369;49.906;8.598;2023-02-28T06:18:27;-2.30;99.90
6666;DHT22;3369;49.906;8.598;2023-02-28T06:20:55;-2.30;99.90
6666;DHT22;3369;49.906;8.598;2023-02-28T06:23:22;-2.30;99.90
6666;DHT22;3369;49.906;8.598;2023-02-28T06:25:48;-2.30;99.90
6666;DHT22;3369;49.906;8.598;2023-02-28T06:28:15;-2.30;99.90
6666;DHT22;3369;49.906;8.598;2023-02-28T06:39:55;-2.40;99.90
6666;DHT22;3369;49.906;8.598;2023-02-28T06:42:30;-2.40;99.90
6666;DHT22;3369;49.906;8.598;2023-02-28T06:45:03;-2.30;99.90
6666;DHT22;3369;49.906;8.598;2023-02-28T06:47:35;-2.30;99.90
6666;DHT22;3369;49.906;8.598;2023-02-28T06:50:01;-2.30;99.90
6666;DHT22;3369;49.906;8.598;2023-02-28T07:12:48;-2.10;99.90
6666;DHT22;3369;49.906;8.598;2023-02-28T07:15:14;-2.10;99.90
6666;DHT22;3369;49.906;8.598;2023-02-28T07:28:25;-1.90;99.90
6666;DHT22;3369;49.906;8.598;2023-02-28T07:33:58;-1.70;99.90
6666;DHT22;3369;49.906;8.598;2023-02-28T08:07:37;-0.30;99.90
6666;DHT22;3369;49.906;8.598;2023-02-28T08:10:03;-0.10;99.90
6666;DHT22;3369;49.906;8.598;2023-02-28T08:12:30;0.00;99.60
6666;DHT22;3369;49.906;8.598;2023-02-28T08:14:56;0.20;98.90
6666;DHT22;3369;49.906;8.598;2023-02-28T08:17:22;0.30;98.80
6666;DHT22;3369;49.906;8.598;2023-02-28T08:19:47;0.40;98.60
6666;DHT22;3369;49.906;8.598;2023-02-28T08:22:13;0.60;98.10
6666;DHT22;3369;49.906;8.598;2023-02-28T08:24:40;0.80;97.40
6666;DHT22;3369;49.906;8.598;2023-02-28T08:27:07;0.90;96.80
6666;DHT22;3369;49.906;8.598;2023-02-28T08:29:32;1.00;97.10
6666;DHT22;3369;49.906;8.598;2023-02-28T08:31:58;1.10;97.00
6666;DHT22;3369;49.906;8.598;2023-02-28T08:34:24;1.20;96.00
6666;DHT22;3369;49.906;8.598;2023-02-28T08:36:49;1.30;95.80
6666;DHT22;3369;49.906;8.598;2023-02-28T08:39:15;1.40;95.90
6666;DHT22;3369;49.906;8.598;2023-02-28T08:41:42;1.50;95.90
6666;DHT22;3369;49.906;8.598;2023-02-28T08:44:09;1.70;95.60
6666;DHT22;3369;49.906;8.598;2023-02-28T08:46:35;1.90;95.20
6666;DHT22;3369;49.906;8.598;2023-02-28T08:49:00;2.10;94.50
6666;DHT22;3369;49.906;8.598;2023-02-28T08:51:28;2.20;94.40
6666;DHT22;3369;49.906;8.598;2023-02-28T08:53:55;2.30;94.30
6666;DHT22;3369;49.906;8.598;2023-02-28T08:56:21;2.40;93.80
6666;DHT22;3369;49.906;8.598;2023-02-28T08:58:48;2.40;93.70
6666;DHT22;3369;49.906;8.598;2023-02-28T09:01:18;2.50;93.10
6666;DHT22;3369;49.906;8.598;2023-02-28T09:03:44;2.50;92.60
6666;DHT22;3369;49.906;8.598;2023-02-28T09:06:12;2.60;92.40
6666;DHT22;3369;49.906;8.598;2023-02-28T09:08:38;2.60;92.20
6666;DHT22;3369;49.906;8.598;2023-02-28T09:11:04;2.60;91.90
6666;DHT22;3369;49.906;8.598;2023-02-28T09:13:30;2.60;92.10
6666;DHT22;3369;49.906;8.598;2023-02-28T09:15:58;2.60;91.90
6666;DHT22;3369;49.906;8.598;2023-02-28T09:18:25;2.60;91.90
6666;DHT22;3369;49.906;8.598;2023-02-28T09:20:51;2.60;92.00
6666;DHT22;3369;49.906;8.598;2023-02-28T09:23:17;2.60;92.00
6666;DHT22;3369;49.906;8.598;2023-02-28T09:25:48;2.70;91.80
6666;DHT22;3369;49.906;8.598;2023-02-28T09:28:15;2.80;91.30
6666;DHT22;3369;49.906;8.598;2023-02-28T09:30:46;2.90;91.40
6666;DHT22;3369;49.906;8.598;2023-02-28T09:33:13;3.00;91.10
6666;DHT22;3369;49.906;8.598;2023-02-28T09:35:39;3.00;90.80
6666;DHT22;3369;49.906;8.598;2023-02-28T09:38:05;3.10;90.50
6666;DHT22;3369;49.906;8.598;2023-02-28T09:40:36;3.30;90.60
6666;DHT22;3369;49.906;8.598;2023-02-28T09:43:15;3.40;90.50
6666;DHT22;3369;49.906;8.598;2023-02-28T09:48:37;3.70;87.00
6666;DHT22;3369;49.906;8.598;2023-02-28T09:51:30;3.70;86.60
6666;DHT22;3369;49.906;8.598;2023-02-28T09:53:58;3.80;85.80
6666;DHT22;3369;49.906;8.598;2023-02-28T09:56:31;3.70;85.70
6666;DHT22;3369;49.906;8.598;2023-02-28T09:59:23;3.80;84.60
6666;DHT22;3369;49.906;8.598;2023-02-28T10:02:03;3.90;85.00
6666;DHT22;3369;49.906;8.598;2023-02-28T10:04:58;4.00;84.30
6666;DHT22;3369;49.906;8.598;2023-02-28T10:10:07;4.20;81.70
6666;DHT22;3369;49.906;8.598;2023-02-28T10:12:44;4.10;81.40
6666;DHT22;3369;49.906;8.598;2023-02-28T10:15:15;4.00;81.70
6666;DHT22;3369;49.906;8.598;2023-02-28T10:17:43;4.00;81.80
6666;DHT22;3369;49.906;8.598;2023-02-28T10:20:17;4.00;82.00
6666;DHT22;3369;49.906;8.598;2023-02-28T10:22:58;4.00;81.60
6666;DHT22;3369;49.906;8.598;2023-02-28T10:25:28;4.10;81.00
6666;DHT22;3369;49.906;8.598;2023-02-28T10:28:21;4.20;81.80
6666;DHT22;3369;49.906;8.598;2023-02-28T10:30:49;4.30;80.10
6666;DHT22;3369;49.906;8.598;2023-02-28T10:33:29;4.20;79.20
6666;DHT22;3369;49.906;8.598;2023-02-28T10:35:55;4.20;80.70
6666;DHT22;3369;49.906;8.598;2023-02-28T10:38:26;4.30;81.60
6666;DHT22;3369;49.906;8.598;2023-02-28T10:43:32;4.80;79.80
6666;DHT22;3369;49.906;8.598;2023-02-28T10:46:14;4.90;78.70
6666;DHT22;3369;49.906;8.598;2023-02-28T10:49:06;5.00;77.00
6666;DHT22;3369;49.906;8.598;2023-02-28T10:51:40;5.10;76.00
6666;DHT22;3369;49.906;8.598;2023-02-28T10:54:15;5.00;75.80
6666;DHT22;3369;49.906;8.598;2023-02-28T10:56:41;5.00;74.60
6666;DHT22;3369;49.906;8.598;2023-02-28T10:59:28;4.90;74.10
6666;DHT22;3369;49.906;8.598;2023-02-28T11:01:54;4.90;74.40
6666;DHT22;3369;49.906;8.598;2023-02-28T11:07:17;5.10;75.10
6666;DHT22;3369;49.906;8.598;2023-02-28T11:09:52;5.20;75.20
6666;DHT22;3369;49.906;8.598;2023-02-28T11:12:48;5.40;74.70
6666;DHT22;3369;49.906;8.598;2023-02-28T11:15:23;5.50;74.20
6666;DHT22;3369;49.906;8.598;2023-02-28T11:18:02;5.60;74.40
6666;DHT22;3369;49.906;8.598;2023-02-28T11:20:31;5.60;73.90
6666;DHT22;3369;49.906;8.598;2023-02-28T11:22:58;5.70;73.30
6666;DHT22;3369;49.906;8.598;2023-02-28T11:25:31;5.70;72.80
6666;DHT22;3369;49.906;8.598;2023-02-28T11:28:00;5.70;72.10
6666;DHT22;3369;49.906;8.598;2023-02-28T11:30:37;5.70;72.60
6666;DHT22;3369;49.906;8.598;2023-02-28T11:35:50;5.60;71.20
6666;DHT22;3369;49.906;8.598;2023-02-28T11:38:16;5.60;71.60
6666;DHT22;3369;49.906;8.598;2023-02-28T11:46:44;5.30;72.60
6666;DHT22;3369;49.906;8.598;2023-02-28T11:52:21;5.30;71.80
6666;DHT22;3369;49.906;8.598;2023-02-28T11:57:35;5.30;72.80
6666;DHT22;3369;49.906;8.598;2023-02-28T12:03:54;5.40;71.40
6666;DHT22;3369;49.906;8.598;2023-02-28T12:06:17;5.40;72.10
6666;DHT22;3369;49.906;8.598;2023-02-28T12:11:55;5.10;71.30
6666;DHT22;3369;49.906;8.598;2023-02-28T12:14:28;5.10;70.80
6666;DHT22;3369;49.906;8.598;2023-02-28T12:22:27;5.00;71.00
6666;DHT22;3369;49.906;8.598;2023-02-28T12:27:30;5.20;71.20
6666;DHT22;3369;49.906;8.598;2023-02-28T12:30:14;5.30;71.90
6666;DHT22;3369;49.906;8.598;2023-02-28T12:32:48;5.40;72.60
6666;DHT22;3369;49.906;8.598;2023-02-28T12:35:23;5.50;71.50
6666;DHT22;3369;49.906;8.598;2023-02-28T12:38:03;5.50;71.20
6666;DHT22;3369;49.906;8.598;2023-02-28T12:40:45;5.60;71.30
6666;DHT22;3369;49.906;8.598;2023-02-28T12:43:13;5.70;71.00
6666;DHT22;3369;49.906;8.598;2023-02-28T12:45:50;5.70;70.40
6666;DHT22;3369;49.906;8.598;2023-02-28T12:48:24;5.80;70.30
6666;DHT22;3369;49.906;8.598;2023-02-28T12:50:51;5.80;70.20
6666;DHT22;3369;49.906;8.598;2023-02-28T12:53:26;5.70;71.20
6666;DHT22;3369;49.906;8.598;2023-02-28T12:58:48;5.70;69.70
6666;DHT22;3369;49.906;8.598;2023-02-28T13:29:42;5.30;69.60
6666;DHT22;3369;49.906;8.598;2023-02-28T13:34:40;5.30;70.40
6666;DHT22;3369;49.906;8.598;2023-02-28T13:37:31;5.40;71.10
6666;DHT22;3369;49.906;8.598;2023-02-28T13:39:59;5.50;70.40
6666;DHT22;3369;49.906;8.598;2023-02-28T13:47:44;5.50;70.40
6666;DHT22;3369;49.906;8.598;2023-02-28T13:50:22;5.50;70.40
6666;DHT22;3369;49.906;8.598;2023-02-28T14:06:26;5.70;69.40
6666;DHT22;3369;49.906;8.598;2023-02-28T14:09:00;5.70;70.00
6666;DHT22;3369;49.906;8.598;2023-02-28T14:11:30;5.70;70.60
6666;DHT22;3369;49.906;8.598;2023-02-28T14:13:56;5.70;70.10
6666;DHT22;3369;49.906;8.598;2023-02-28T14:16:38;5.70;70.30
6666;DHT22;3369;49.906;8.598;2023-02-28T14:19:26;5.70;70.60
6666;DHT22;3369;49.906;8.598;2023-02-28T14:25:13;5.70;70.70
6666;DHT22;3369;49.906;8.598;2023-02-28T14:27:50;5.70;69.90
6666;DHT22;3369;49.906;8.598;2023-02-28T14:33:19;5.60;72.40
6666;DHT22;3369;49.906;8.598;2023-02-28T14:36:00;5.60;72.10
6666;DHT22;3369;49.906;8.598;2023-02-28T14:38:34;5.60;70.10
6666;DHT22;3369;49.906;8.598;2023-02-28T14:41:04;5.60;69.50
6666;DHT22;3369;49.906;8.598;2023-02-28T14:43:32;5.50;69.90
6666;DHT22;3369;49.906;8.598;2023-02-28T14:46:02;5.50;70.40
6666;DHT22;3369;49.906;8.598;2023-02-28T14:48:29;5.40;70.50
6666;DHT22;3369;49.906;8.598;2023-02-28T14:50:57;5.40;70.00
6666;DHT22;3369;49.906;8.598;2023-02-28T14:53:27;5.40;71.20
6666;DHT22;3369;49.906;8.598;2023-02-28T14:55:54;5.40;70.80
6666;DHT22;3369;49.906;8.598;2023-02-28T14:58:31;5.40;70.60
6666;DHT22;3369;49.906;8.598;2023-02-28T15:01:02;5.40;71.60
6666;DHT22;3369;49.906;8.598;2023-02-28T15:07:13;5.40;70.90
6666;DHT22;3369;49.906;8.598;2023-02-28T15:09:40;5.40;71.20
6666;DHT22;3369;49.906;8.598;2023-02-28T15:12:06;5.40;71.40
6666;DHT22;3369;49.906;8.598;2023-02-28T15:14:32;5.50;71.60
6666;DHT22;3369;49.906;8.598;2023-02-28T15:43:32;5.30;71.40
6666;DHT22;3369;49.906;8.598;2023-02-28T15:46:01;5.30;71.80
6666;DHT22;3369;49.906;8.598;2023-02-28T15:48:50;5.30;71.90
6666;DHT22;3369;49.906;8.598;2023-02-28T15:51:29;5.30;71.80
6666;DHT22;3369;49.906;8.598;2023-02-28T15:54:21;5.30;72.30
6666;DHT22;3369;49.906;8.598;2023-02-28T15:56:52;5.30;72.90
6666;DHT22;3369;49.906;8.598;2023-02-28T15:59:27;5.30;73.00
6666;DHT22;3369;49.906;8.598;2023-02-28T16:02:17;5.20;73.40
6666;DHT22;3369;49.906;8.598;2023-02-28T16:07:55;5.20;72.80
6666;DHT22;3369;49.906;8.598;2023-02-28T16:10:26;5.20;73.30
6666;DHT22;3369;49.906;8.598;2023-02-28T16:12:54;5.20;73.80
6666;DHT22;3369;49.906;8.598;2023-02-28T16:15:41;5.10;74.20
6666;DHT22;3369;49.906;8.598;2023-02-28T16:18:11;5.00;73.90
6666;DHT22;3369;49.906;8.598;2023-02-28T16:20:37;5.00;73.70
6666;DHT22;3369;49.906;8.598;2023-02-28T16:23:03;4.90;73.70
6666;DHT22;3369;49.906;8.598;2023-02-28T16:25:35;4.90;74.10
6666;DHT22;3369;49.906;8.598;2023-02-28T16:28:02;4.90;74.50
6666;DHT22;3369;49.906;8.598;2023-02-28T16:30:29;4.80;74.50
6666;DHT22;3369;49.906;8.598;2023-02-28T16:32:58;4.80;74.60
6666;DHT22;3369;49.906;8.598;2023-02-28T16:35:24;4.70;75.00
6666;DHT22;3369;49.906;8.598;2023-02-28T16:38:02;4.60;75.20
6666;DHT22;3369;49.906;8.598;2023-02-28T16:40:31;4.60;75.20
6666;DHT22;3369;49.906;8.598;2023-02-28T16:42:59;4.50;75.40
6666;DHT22;3369;49.906;8.598;2023-02-28T16:45:27;4.50;75.40
6666;DHT22;3369;49.906;8.598;2023-02-28T16:47:56;4.40;75.90
6666;DHT22;3369;49.906;8.598;2023-02-28T16:50:25;4.30;75.90
6666;DHT22;3369;49.906;8.598;2023-02-28T16:52:51;4.30;76.40
6666;DHT22;3369;49.906;8.598;2023-02-28T16:55:21;4.20;77.70
6666;DHT22;3369;49.906;8.598;2023-02-28T16:57:57;4.10;77.50
6666;DHT22;3369;49.906;8.598;2023-02-28T17:00:24;3.90;77.80
6666;DHT22;3369;49.906;8.598;2023-02-28T17:02:51;3.80;78.00
6666;DHT22;3369;49.906;8.598;2023-02-28T17:05:18;3.70;78.40
6666;DHT22;3369;49.906;8.598;2023-02-28T17:07:45;3.60;78.90
6666;DHT22;3369;49.906;8.598;2023-02-28T17:10:19;3.60;79.60
6666;DHT22;3369;49.906;8.598;2023-02-28T17:12:45;3.40;79.90
6666;DHT22;3369;49.906;8.598;2023-02-28T17:15:15;3.30;80.30
6666;DHT22;3369;49.906;8.598;2023-02-28T17:17:48;3.20;80.70
6666;DHT22;3369;49.906;8.598;2023-02-28T17:20:20;3.10;80.90
6666;DHT22;3369;49.906;8.598;2023-02-28T17:22:50;3.00;81.20
6666;DHT22;3369;49.906;8.598;2023-02-28T17:25:16;3.00;81.70
6666;DHT22;3369;49.906;8.598;2023-02-28T17:27:42;2.90;82.10
6666;DHT22;3369;49.906;8.598;2023-02-28T17:30:26;2.80;82.50
6666;DHT22;3369;49.906;8.598;2023-02-28T17:32:56;2.70;82.90
6666;DHT22;3369;49.906;8.598;2023-02-28T17:35:22;2.60;83.30
6666;DHT22;3369;49.906;8.598;2023-02-28T17:37:48;2.50;83.80
6666;DHT22;3369;49.906;8.598;2023-02-28T17:40:23;2.40;84.10
6666;DHT22;3369;49.906;8.598;2023-02-28T17:42:52;2.30;84.40
6666;DHT22;3369;49.906;8.598;2023-02-28T17:45:18;2.30;84.70
6666;DHT22;3369;49.906;8.598;2023-02-28T17:47:47;2.20;84.70
6666;DHT22;3369;49.906;8.598;2023-02-28T17:50:16;2.10;85.00
6666;DHT22;3369;49.906;8.598;2023-02-28T17:52:42;2.00;85.30
6666;DHT22;3369;49.906;8.598;2023-02-28T17:55:09;2.00;85.70
6666;DHT22;3369;49.906;8.598;2023-02-28T17:57:35;1.90;86.00
6666;DHT22;3369;49.906;8.598;2023-02-28T18:00:01;1.90;86.30
6666;DHT22;3369;49.906;8.598;2023-02-28T18:02:31;1.80;86.50
6666;DHT22;3369;49.906;8.598;2023-02-28T18:04:56;1.80;86.60
6666;DHT22;3369;49.906;8.598;2023-02-28T18:07:24;1.80;86.60
6666;DHT22;3369;49.906;8.598;2023-02-28T18:09:59;1.80;86.60
6666;DHT22;3369;49.906;8.598;2023-02-28T18:12:25;1.80;86.60
6666;DHT22;3369;49.906;8.598;2023-02-28T18:14:51;1.80;86.60
6666;DHT22;3369;49.906;8.598;2023-02-28T18:17:17;1.80;86.80
6666;DHT22;3369;49.906;8.598;2023-02-28T18:19:43;1.70;86.80
6666;DHT22;3369;49.906;8.598;2023-02-28T18:22:15;1.70;87.00
6666;DHT22;3369;49.906;8.598;2023-02-28T18:24:42;1.70;87.20
6666;DHT22;3369;49.906;8.598;2023-02-28T18:27:10;1.70;87.10
6666;DHT22;3369;49.906;8.598;2023-02-28T18:29:36;1.70;87.30
6666;DHT22;3369;49.906;8.598;2023-02-28T18:32:03;1.60;87.40
6666;DHT22;3369;49.906;8.598;2023-02-28T18:34:30;1.60;87.60
6666;DHT22;3369;49.906;8.598;2023-02-28T18:36:56;1.50;87.70
6666;DHT22;3369;49.906;8.598;2023-02-28T18:39:28;1.50;87.80
6666;DHT22;3369;49.906;8.598;2023-02-28T18:41:54;1.50;88.00
6666;DHT22;3369;49.906;8.598;2023-02-28T18:47:46;1.40;88.10
6666;DHT22;3369;49.906;8.598;2023-02-28T18:50:15;1.40;88.30
6666;DHT22;3369;49.906;8.598;2023-02-28T18:52:41;1.40;88.40
6666;DHT22;3369;49.906;8.598;2023-02-28T18:55:10;1.30;88.30
6666;DHT22;3369;49.906;8.598;2023-02-28T18:57:39;1.30;88.40
6666;DHT22;3369;49.906;8.598;2023-02-28T19:00:05;1.30;88.60
6666;DHT22;3369;49.906;8.598;2023-02-28T19:02:32;1.30;88.50
6666;DHT22;3369;49.906;8.598;2023-02-28T19:04:57;1.20;88.40
6666;DHT22;3369;49.906;8.598;2023-02-28T19:28:51;0.60;88.70
6666;DHT22;3369;49.906;8.598;2023-02-28T19:31:22;0.60;89.50
6666;DHT22;3369;49.906;8.598;2023-02-28T19:33:48;0.50;89.10
6666;DHT22;3369;49.906;8.598;2023-02-28T19:36:17;0.50;89.10
6666;DHT22;3369;49.906;8.598;2023-02-28T19:38:43;0.50;89.30
6666;DHT22;3369;49.906;8.598;2023-02-28T19:41:11;0.50;89.50
6666;DHT22;3369;49.906;8.598;2023-02-28T19:43:37;0.50;89.50
6666;DHT22;3369;49.906;8.598;2023-02-28T19:46:24;0.50;89.70
6666;DHT22;3369;49.906;8.598;2023-02-28T19:48:54;0.40;90.00
6666;DHT22;3369;49.906;8.598;2023-02-28T19:51:23;0.40;90.20
6666;DHT22;3369;49.906;8.598;2023-02-28T19:54:15;0.40;90.40
6666;DHT22;3369;49.906;8.598;2023-02-28T19:56:41;0.40;90.60
6666;DHT22;3369;49.906;8.598;2023-02-28T19:59:07;0.30;90.60
6666;DHT22;3369;49.906;8.598;2023-02-28T20:01:33;0.30;90.70
6666;DHT22;3369;49.906;8.598;2023-02-28T20:04:02;0.30;90.80
6666;DHT22;3369;49.906;8.598;2023-02-28T20:06:31;0.30;90.90
6666;DHT22;3369;49.906;8.598;2023-02-28T20:08:57;0.40;90.90
6666;DHT22;3369;49.906;8.598;2023-02-28T20:11:23;0.40;91.00
6666;DHT22;3369;49.906;8.598;2023-02-28T20:13:53;0.40;91.00
6666;DHT22;3369;49.906;8.598;2023-02-28T20:16:20;0.30;91.00
6666;DHT22;3369;49.906;8.598;2023-02-28T20:18:49;0.40;91.10
6666;DHT22;3369;49.906;8.598;2023-02-28T20:21:17;0.30;91.20
6666;DHT22;3369;49.906;8.598;2023-02-28T20:23:52;0.30;91.40
6666;DHT22;3369;49.906;8.598;2023-02-28T20:26:18;0.30;91.80
6666;DHT22;3369;49.906;8.598;2023-02-28T20:28:45;0.20;91.90
6666;DHT22;3369;49.906;8.598;2023-02-28T20:31:19;0.20;92.10
6666;DHT22;3369;49.906;8.598;2023-02-28T20:33:47;0.20;92.20
6666;DHT22;3369;49.906;8.598;2023-02-28T20:36:15;0.10;92.20
6666;DHT22;3369;49.906;8.598;2023-02-28T20:39:27;0.20;92.40
6666;DHT22;3369;49.906;8.598;2023-02-28T20:41:41;0.10;92.50
6666;DHT22;3369;49.906;8.598;2023-02-28T20:44:13;0.10;92.60
6666;DHT22;3369;49.906;8.598;2023-02-28T20:46:39;0.10;92.70
6666;DHT22;3369;49.906;8.598;2023-02-28T20:59:09;0.00;93.30
6666;DHT22;3369;49.906;8.598;2023-02-28T21:01:35;-0.10;93.40
6666;DHT22;3369;49.906;8.598;2023-02-28T21:04:03;-0.10;93.50
6666;DHT22;3369;49.906;8.598;2023-02-28T21:06:32;-0.10;93.60
6666;DHT22;3369;49.906;8.598;2023-02-28T21:12:50;-0.10;93.70
6666;DHT22;3369;49.906;8.598;2023-02-28T21:15:24;-0.20;93.70
6666;DHT22;3369;49.906;8.598;2023-02-28T21:17:50;-0.30;93.80
6666;DHT22;3369;49.906;8.598;2023-02-28T21:20:17;-0.30;94.10
6666;DHT22;3369;49.906;8.598;2023-02-28T21:22:50;-0.30;94.30
6666;DHT22;3369;49.906;8.598;2023-02-28T21:25:17;-0.30;94.30
6666;DHT22;3369;49.906;8.598;2023-02-28T21:27:43;-0.40;94.40
6666;DHT22;3369;49.906;8.598;2023-02-28T21:30:09;-0.50;94.50
6666;DHT22;3369;49.906;8.598;2023-02-28T21:32:35;-0.50;94.60
6666;DHT22;3369;49.906;8.598;2023-02-28T21:35:03;-0.50;94.70
6666;DHT22;3369;49.906;8.598;2023-02-28T21:37:29;-0.50;94.70
6666;DHT22;3369;49.906;8.598;2023-02-28T21:39:55;-0.50;94.80
6666;DHT22;3369;49.906;8.598;2023-02-28T21:42:31;-0.50;94.80
6666;DHT22;3369;49.906;8.598;2023-02-28T21:44:57;-0.50;94.80
6666;DHT22;3369;49.906;8.598;2023-02-28T21:47:32;-0.50;94.80
6666;DHT22;3369;49.906;8.598;2023-02-28T21:50:05;-0.50;94.80
6666;DHT22;3369;49.906;8.598;2023-02-28T21:52:32;-0.60;94.90
6666;DHT22;3369;49.906;8.598;2023-02-28T21:54:58;-0.60;95.00
6666;DHT22;3369;49.906;8.598;2023-02-28T21:57:24;-0.60;95.10
6666;DHT22;3369;49.906;8.598;2023-02-28T22:00:00;-0.60;95.20
6666;DHT22;3369;49.906;8.598;2023-02-28T22:02:32;-0.60;95.20
6666;DHT22;3369;49.906;8.598;2023-02-28T22:05:01;-0.60;95.20
6666;DHT22;3369;49.906;8.598;2023-02-28T22:07:36;-0.60;95.20
6666;DHT22;3369;49.906;8.598;2023-02-28T22:10:06;-0.60;95.30
6666;DHT22;3369;49.906;8.598;2023-02-28T22:12:33;-0.60;95.30
6666;DHT22;3369;49.906;8.598;2023-02-28T22:14:59;-0.60;95.30
6666;DHT22;3369;49.906;8.598;2023-02-28T22:17:41;-0.60;95.30
6666;DHT22;3369;49.906;8.598;2023-02-28T22:20:10;-0.70;95.20
6666;DHT22;3369;49.906;8.598;2023-02-28T22:22:40;-0.80;95.20
6666;DHT22;3369;49.906;8.598;2023-02-28T22:25:09;-0.90;95.30
6666;DHT22;3369;49.906;8.598;2023-02-28T22:27:35;-1.00;95.50
6666;DHT22;3369;49.906;8.598;2023-02-28T22:30:04;-1.00;95.60
6666;DHT22;3369;49.906;8.598;2023-02-28T22:35:10;-1.10;96.20
6666;DHT22;3369;49.906;8.598;2023-02-28T22:37:36;-1.10;96.60
6666;DHT22;3369;49.906;8.598;2023-02-28T22:43:32;-1.10;97.20
6666;DHT22;3369;49.906;8.598;2023-02-28T22:46:06;-1.20;97.30